Lingen, Germania

10:54 PM CEST die 29o August, anno 2015 (GMT +0200)
Messingen | | Change Station
CLOSE
Current Station
Personal Weather Stations
Location: Messingen, NIEDERSACHSEN
Elevation: 105 ft
Nearby Weather Stations

Elev 105 ft 52.47 °N, 7.48 °E | Updated 23 minutes ago

Clear
Serena
57.9 °F
Feels Like 57.9 °F
N
0.5
Ventus Variabilis Ventus from Inter Aquilonem et Eurum
Gusts 2.0 mph

Hodie
High -- | Low -- °F
--% Chance of Precip.
Yesterday
High -- | Low -- °F
Precip. -- in
6:35 AM 8:26 PM
Full, 100% visible
Pressio 30.12 in
Visibilitas -9999.0 milia passuum
Clouds
Frigus in quo Ros apparet 56 °F
Umor 93%
Rainfall 0.00 in
Snow Depth Not available.
UV Not available.
Pollen Not available.
Air Quality Not available.
Flu Activity Not available.
METAR EDDG 292050Z 03003KT 010V070 CAVOK 17/15 Q1020 NOSIG
Pressio 30.12 in
Visibilitas -9999.0 milia passuum
Clouds
Frigus in quo Ros apparet 56 °F
Umor 93%
Rainfall 0.00 in
Snow Depth Not available.
UV Not available.
Pollen Not available.
Air Quality Not available.
Flu Activity Not available.
METAR EDDG 292050Z 03003KT 010V070 CAVOK 17/15 Q1020 NOSIG

10-Day Weather Forecast

×

Almanac

Astronomy

Aug. 29, 2015 Rise Set
Actual Time
Civil Twilight
Nautical Twilight
Astronomical Twilight
Moon
Length Of Visible Light
Length of Day
Tomorrow will be .
, % of the Moon is Illuminated

Today's Extremes

Country Highs Country Lows

Community

WunderPhotos

Upload Photos

1,850,793 photos uploaded!

WunderBlogs® & News

Nearby

Air Quality

  Air Quality AQ Index Pollutant
Not available.

Snow Depth

Station Depth Elevation

Earthquake Activity

City Distance Mag. Time & Date
Minimum magnitude displayed is 2.5.

Coastal Water Temperatures

Locus Calor

Stations

Nearby Weather Stations

Station Location Temp Frigus Venti Frigus in quo Ros apparet Umor Ventus Precip. Elev Renovata Type